Time;durP1;ratioP1;P1;durP2;ratioP2;P2;SDS_P1;SDS_P2;PMS_P1;PMS_P2;Temp;Humidity;BMP_temperature;BMP_pressure;BME280_temperature;BME280_humidity;BME280_pressure;Samples;Min_cycle;Max_cycle;Signal;HPM_P1;HPM_P2
2023/05/12 00:02:06;;;;;;;6.37;4.90;;;14.20;99.90;;;;;;5030144;28;20460;-72
2023/05/12 00:04:32;;;;;;;5.67;4.30;;;14.20;99.90;;;;;;5043213;28;20742;-69
2023/05/12 00:06:57;;;;;;;7.70;4.67;;;14.20;99.90;;;;;;5037551;28;20570;-71
2023/05/12 00:09:23;;;;;;;6.83;5.00;;;14.20;99.90;;;;;;5024751;28;20214;-70
2023/05/12 00:11:49;;;;;;;5.60;4.73;;;14.10;99.90;;;;;;5037412;28;20313;-71
2023/05/12 00:14:15;;;;;;;8.90;4.50;;;13.90;99.90;;;;;;5030928;28;20228;-70
2023/05/12 00:16:40;;;;;;;5.57;4.73;;;13.90;99.90;;;;;;5022121;28;20232;-72
2023/05/12 00:19:06;;;;;;;5.50;4.67;;;13.90;99.90;;;;;;5029797;28;20827;-72
2023/05/12 00:21:32;;;;;;;5.67;4.20;;;14.00;99.90;;;;;;5023422;28;20221;-69
2023/05/12 00:23:58;;;;;;;7.87;4.60;;;13.90;99.90;;;;;;5033423;28;20240;-69
2023/05/12 00:26:23;;;;;;;9.30;5.00;;;14.00;99.90;;;;;;5040464;28;20706;-71
2023/05/12 00:28:50;;;;;;;6.33;4.20;;;14.00;99.90;;;;;;5028951;28;20219;-71
2023/05/12 00:31:16;;;;;;;5.13;4.10;;;14.10;99.90;;;;;;5034732;28;20456;-70
2023/05/12 00:33:42;;;;;;;5.43;4.40;;;14.10;99.90;;;;;;5037637;28;20304;-71
2023/05/12 00:36:07;;;;;;;6.87;4.27;;;14.10;99.90;;;;;;5020485;28;20367;-72
2023/05/12 00:38:33;;;;;;;6.10;4.97;;;14.10;99.90;;;;;;5034101;28;20232;-71
2023/05/12 00:41:00;;;;;;;8.50;4.73;;;14.20;99.90;;;;;;5051454;28;20237;-71
2023/05/12 00:43:26;;;;;;;4.93;3.70;;;14.20;99.90;;;;;;5027198;28;20220;-70
2023/05/12 00:45:52;;;;;;;5.83;4.40;;;14.20;99.90;;;;;;5032032;28;20538;-71
2023/05/12 00:48:18;;;;;;;6.40;4.50;;;14.20;99.90;;;;;;5020791;28;20221;-70
2023/05/12 00:50:44;;;;;;;6.30;4.37;;;14.20;99.90;;;;;;5032117;28;20455;-71
2023/05/12 00:53:11;;;;;;;4.60;3.50;;;14.20;99.90;;;;;;5031589;28;20483;-70
2023/05/12 00:55:36;;;;;;;6.43;4.40;;;14.20;99.90;;;;;;5027832;28;20243;-70
2023/05/12 00:58:03;;;;;;;7.30;4.50;;;14.10;99.90;;;;;;5028413;28;20454;-71
2023/05/12 01:00:30;;;;;;;5.13;4.40;;;14.00;99.90;;;;;;5027126;28;20443;-71
2023/05/12 01:02:58;;;;;;;5.83;4.43;;;14.00;99.90;;;;;;5024752;28;20519;-71
2023/05/12 01:05:38;;;;;;;4.50;3.73;;;14.00;99.90;;;;;;5021978;28;20229;-71
2023/05/12 01:08:05;;;;;;;5.30;3.93;;;14.00;99.90;;;;;;5033646;28;20463;-71
2023/05/12 01:10:30;;;;;;;6.47;4.50;;;14.00;99.90;;;;;;5039197;28;20447;-71
2023/05/12 01:12:56;;;;;;;6.07;5.20;;;13.90;99.90;;;;;;5031673;28;20452;-71
2023/05/12 01:15:22;;;;;;;6.90;4.20;;;14.00;99.90;;;;;;5036600;28;20534;-69
2023/05/12 01:17:55;;;;;;;4.93;3.97;;;14.00;99.90;;;;;;5011252;28;20213;-69
2023/05/12 01:20:24;;;;;;;5.50;4.13;;;14.00;99.90;;;;;;5039405;28;20690;-71
2023/05/12 01:22:51;;;;;;;5.87;4.30;;;14.00;99.90;;;;;;5020410;28;20969;-70
2023/05/12 01:25:21;;;;;;;5.10;4.00;;;13.90;99.90;;;;;;5036625;28;20539;-70
2023/05/12 01:27:48;;;;;;;5.90;4.13;;;13.90;99.90;;;;;;5033438;28;20472;-70
2023/05/12 01:30:17;;;;;;;5.30;4.33;;;13.70;99.90;;;;;;5035219;28;20455;-70
2023/05/12 01:32:42;;;;;;;6.47;4.87;;;13.60;99.90;;;;;;5013274;28;20888;-69
2023/05/12 01:35:09;;;;;;;5.10;4.03;;;13.60;99.90;;;;;;5035002;28;20503;-68
2023/05/12 01:37:37;;;;;;;5.93;4.00;;;13.70;99.90;;;;;;5023849;28;20224;-70
2023/05/12 01:40:04;;;;;;;4.93;4.00;;;13.80;99.90;;;;;;5042965;28;20444;-71
2023/05/12 01:42:31;;;;;;;4.53;3.60;;;13.90;99.90;;;;;;5038591;28;20927;-69
2023/05/12 01:44:57;;;;;;;4.30;3.43;;;13.90;99.90;;;;;;5032520;28;20457;-70
2023/05/12 01:47:23;;;;;;;5.07;3.87;;;14.00;99.90;;;;;;5015507;28;20833;-71
2023/05/12 01:49:55;;;;;;;4.40;3.70;;;14.00;99.90;;;;;;5030704;28;20448;-71
2023/05/12 01:52:21;;;;;;;4.17;3.33;;;14.00;99.90;;;;;;5036167;28;20462;-69
2023/05/12 01:54:47;;;;;;;4.60;3.60;;;14.00;99.90;;;;;;5035666;28;20572;-70
2023/05/12 01:57:13;;;;;;;4.40;3.40;;;14.00;99.90;;;;;;5021998;28;20232;-70
2023/05/12 01:59:39;;;;;;;5.20;4.17;;;14.00;99.90;;;;;;5035801;28;20440;-70
2023/05/12 02:02:05;;;;;;;5.43;3.93;;;14.00;99.90;;;;;;5017446;28;20214;-71
2023/05/12 02:04:31;;;;;;;5.37;3.40;;;14.00;99.90;;;;;;5005655;28;20788;-70
2023/05/12 02:06:58;;;;;;;5.17;3.90;;;14.00;99.90;;;;;;5038702;28;20713;-70
2023/05/12 02:09:24;;;;;;;5.20;3.90;;;14.00;99.90;;;;;;5038834;28;20474;-71
2023/05/12 02:11:53;;;;;;;5.07;3.87;;;14.00;99.90;;;;;;5031792;28;20216;-70
2023/05/12 02:14:18;;;;;;;5.80;3.57;;;14.00;99.90;;;;;;5026085;28;20450;-71
2023/05/12 02:16:44;;;;;;;5.40;3.73;;;14.00;99.90;;;;;;5034337;28;20224;-70
2023/05/12 02:19:10;;;;;;;4.13;3.40;;;14.00;99.90;;;;;;5030398;28;20222;-70
2023/05/12 02:21:35;;;;;;;5.33;3.30;;;14.00;99.90;;;;;;5031796;28;20340;-71
2023/05/12 02:24:01;;;;;;;4.57;3.80;;;14.00;99.90;;;;;;5007708;28;20718;-71
2023/05/12 02:26:26;;;;;;;5.53;4.10;;;14.00;99.90;;;;;;5005227;28;20296;-71
2023/05/12 02:28:53;;;;;;;5.57;4.00;;;14.00;99.90;;;;;;5034055;28;20290;-71
2023/05/12 02:31:19;;;;;;;5.00;3.80;;;14.00;99.90;;;;;;5011499;28;20449;-69
2023/05/12 02:33:45;;;;;;;4.50;3.47;;;14.00;99.90;;;;;;5023690;28;20972;-71
2023/05/12 02:36:11;;;;;;;7.30;3.70;;;14.00;99.90;;;;;;5017274;28;20275;-68
2023/05/12 02:38:36;;;;;;;3.10;2.70;;;14.00;99.90;;;;;;5018424;28;20227;-69
2023/05/12 02:41:02;;;;;;;5.20;3.63;;;14.00;99.90;;;;;;5030829;28;20549;-69
2023/05/12 02:43:28;;;;;;;5.07;3.50;;;14.00;99.90;;;;;;5028747;28;20476;-70
2023/05/12 02:45:54;;;;;;;5.30;4.20;;;14.00;99.90;;;;;;5026423;28;21537;-69
2023/05/12 02:48:19;;;;;;;5.63;4.00;;;14.00;99.90;;;;;;5026515;28;20217;-71
2023/05/12 02:50:45;;;;;;;5.47;3.60;;;14.00;99.90;;;;;;5025236;28;20301;-71
2023/05/12 02:53:11;;;;;;;3.73;3.23;;;14.00;99.90;;;;;;5035477;28;20733;-70
2023/05/12 02:55:36;;;;;;;5.10;3.73;;;14.00;99.90;;;;;;5010691;28;20597;-73
2023/05/12 02:58:02;;;;;;;4.67;3.67;;;14.00;99.90;;;;;;5016349;28;20579;-70
2023/05/12 03:00:28;;;;;;;5.50;4.13;;;14.00;99.90;;;;;;5021080;28;20299;-70
2023/05/12 03:02:54;;;;;;;4.23;3.30;;;14.00;99.90;;;;;;5023663;28;20555;-71
2023/05/12 03:05:19;;;;;;;7.23;3.90;;;14.00;99.90;;;;;;5018849;28;20229;-70
2023/05/12 03:07:48;;;;;;;4.90;3.43;;;14.00;99.90;;;;;;5036478;28;20228;-72
2023/05/12 03:10:14;;;;;;;4.10;3.67;;;14.00;99.90;;;;;;5037697;28;20216;-70
2023/05/12 03:12:40;;;;;;;4.70;3.60;;;14.00;99.90;;;;;;5035780;28;20459;-72
2023/05/12 03:15:07;;;;;;;4.07;3.53;;;13.90;99.90;;;;;;5034938;28;21000;-71
2023/05/12 03:17:33;;;;;;;4.90;4.20;;;14.00;99.90;;;;;;5018781;28;21031;-69
2023/05/12 03:19:59;;;;;;;5.10;3.70;;;13.90;99.90;;;;;;5027643;28;20637;-70
2023/05/12 03:22:25;;;;;;;4.30;3.60;;;13.90;99.90;;;;;;5022234;28;20503;-69
2023/05/12 03:24:50;;;;;;;6.10;3.80;;;13.90;99.90;;;;;;5029361;28;20235;-70
2023/05/12 03:27:16;;;;;;;6.53;4.80;;;13.90;99.90;;;;;;5042200;28;20224;-72
2023/05/12 03:29:42;;;;;;;3.67;3.20;;;13.90;99.90;;;;;;5034142;28;20212;-69
2023/05/12 03:32:07;;;;;;;5.27;3.73;;;13.90;99.90;;;;;;5037506;28;20220;-69
2023/05/12 03:34:34;;;;;;;5.73;4.23;;;13.90;99.90;;;;;;5013150;28;20215;-69
2023/05/12 03:37:00;;;;;;;6.00;3.87;;;13.90;99.90;;;;;;5020754;28;20464;-71
2023/05/12 03:39:26;;;;;;;5.23;4.07;;;13.90;99.90;;;;;;5036161;28;20223;-71
2023/05/12 03:41:51;;;;;;;6.50;4.53;;;13.90;99.90;;;;;;5009810;28;20440;-71
2023/05/12 03:44:17;;;;;;;4.10;3.70;;;13.90;99.90;;;;;;5028582;28;20304;-69
2023/05/12 03:46:43;;;;;;;4.67;4.13;;;13.90;99.90;;;;;;5014857;28;20240;-71
2023/05/12 03:49:09;;;;;;;6.17;4.17;;;13.90;99.90;;;;;;5038038;28;20738;-70
2023/05/12 03:51:35;;;;;;;5.73;4.53;;;13.90;99.90;;;;;;5032364;28;20727;-72
2023/05/12 03:54:00;;;;;;;5.07;4.57;;;13.90;99.90;;;;;;5017991;28;20456;-71
2023/05/12 03:56:27;;;;;;;5.53;3.60;;;13.90;99.90;;;;;;5034276;28;20298;-69
2023/05/12 03:58:53;;;;;;;5.43;4.27;;;13.90;99.90;;;;;;5027184;28;20308;-71
2023/05/12 04:01:19;;;;;;;4.17;3.73;;;13.90;99.90;;;;;;5036323;28;20538;-70
2023/05/12 04:03:44;;;;;;;8.20;3.77;;;13.90;99.90;;;;;;5019859;28;20224;-69
2023/05/12 04:06:11;;;;;;;5.00;4.30;;;13.90;99.90;;;;;;5037619;28;20516;-71
2023/05/12 04:08:36;;;;;;;5.10;4.13;;;13.90;99.90;;;;;;5026234;28;20217;-70
2023/05/12 04:11:02;;;;;;;7.40;4.27;;;13.90;99.90;;;;;;5011620;28;20458;-70
2023/05/12 04:13:32;;;;;;;5.80;4.23;;;13.90;99.90;;;;;;5015077;28;20232;-71
2023/05/12 04:15:58;;;;;;;4.90;4.13;;;13.90;99.90;;;;;;5026687;28;20523;-71
2023/05/12 04:18:25;;;;;;;6.70;4.77;;;13.90;99.90;;;;;;5011810;28;20888;-71
2023/05/12 04:20:52;;;;;;;4.90;4.30;;;13.90;99.90;;;;;;5030362;28;20472;-70
2023/05/12 04:23:18;;;;;;;6.40;4.00;;;13.80;99.90;;;;;;5035430;28;20448;-71
2023/05/12 04:25:44;;;;;;;5.60;4.30;;;13.80;99.90;;;;;;5038672;28;20992;-70
2023/05/12 04:28:10;;;;;;;7.43;4.83;;;13.80;99.90;;;;;;5038624;28;20476;-69
2023/05/12 04:30:38;;;;;;;5.43;3.83;;;13.80;99.90;;;;;;5024547;28;20237;-70
2023/05/12 04:33:04;;;;;;;5.20;4.20;;;13.80;99.90;;;;;;5017968;28;20236;-70
2023/05/12 04:35:30;;;;;;;4.90;3.50;;;13.80;99.90;;;;;;5021082;28;20467;-71
2023/05/12 04:37:56;;;;;;;6.40;3.63;;;13.80;99.90;;;;;;5007050;28;20453;-71
2023/05/12 04:40:22;;;;;;;5.47;4.20;;;13.80;99.90;;;;;;5016466;28;20208;-69
2023/05/12 04:42:49;;;;;;;4.97;3.93;;;13.90;99.90;;;;;;5035443;28;20220;-71
2023/05/12 04:45:15;;;;;;;5.53;4.30;;;13.90;99.90;;;;;;5036066;28;20459;-71
2023/05/12 04:47:40;;;;;;;6.40;5.03;;;13.80;99.90;;;;;;5014107;28;20460;-70
2023/05/12 04:50:06;;;;;;;5.80;4.40;;;13.90;99.90;;;;;;5026659;28;20355;-69
2023/05/12 04:52:32;;;;;;;4.77;3.83;;;13.90;99.90;;;;;;5007619;28;20217;-69
2023/05/12 04:54:58;;;;;;;4.50;3.87;;;13.90;99.90;;;;;;5029873;28;20476;-71
2023/05/12 04:57:24;;;;;;;5.50;4.27;;;13.90;99.90;;;;;;5032720;28;20213;-71
2023/05/12 04:59:50;;;;;;;4.33;3.60;;;13.90;99.90;;;;;;5006262;28;20510;-70
2023/05/12 05:02:15;;;;;;;5.90;4.23;;;13.90;99.90;;;;;;5033688;28;20212;-71
2023/05/12 05:04:41;;;;;;;6.07;4.50;;;13.90;99.90;;;;;;5011055;28;20583;-73
2023/05/12 05:07:07;;;;;;;7.03;5.20;;;13.90;99.90;;;;;;5038306;28;20266;-74
2023/05/12 05:09:33;;;;;;;7.00;5.00;;;13.90;99.90;;;;;;5048451;28;20217;-71
2023/05/12 05:11:58;;;;;;;7.33;5.50;;;13.90;99.90;;;;;;5032240;28;20271;-71
2023/05/12 05:14:24;;;;;;;6.80;5.10;;;13.90;99.90;;;;;;5031506;28;20216;-68
2023/05/12 05:16:51;;;;;;;7.37;5.47;;;13.90;99.90;;;;;;5015783;28;20311;-72
2023/05/12 05:19:17;;;;;;;7.77;5.17;;;13.90;99.90;;;;;;5032356;28;20586;-68
2023/05/12 05:21:43;;;;;;;7.20;5.10;;;13.90;99.90;;;;;;5024800;28;20213;-69
2023/05/12 05:24:08;;;;;;;8.30;4.90;;;13.90;99.90;;;;;;5032160;28;20464;-71
2023/05/12 05:26:34;;;;;;;6.87;4.47;;;13.90;99.90;;;;;;5014417;28;20603;-68
2023/05/12 05:29:01;;;;;;;8.40;5.70;;;13.80;99.90;;;;;;4999781;28;20236;-72
2023/05/12 05:31:27;;;;;;;6.27;4.00;;;13.90;99.90;;;;;;5030294;28;20460;-71
2023/05/12 05:33:54;;;;;;;7.60;4.83;;;13.80;99.90;;;;;;5022519;28;20467;-70
2023/05/12 05:36:25;;;;;;;5.13;3.93;;;13.90;99.90;;;;;;5028661;28;20472;-71
2023/05/12 05:38:51;;;;;;;4.43;2.93;;;13.80;99.90;;;;;;5015203;28;20461;-71
2023/05/12 05:41:16;;;;;;;3.37;2.77;;;13.80;99.90;;;;;;5020062;28;20499;-70
2023/05/12 05:43:42;;;;;;;2.83;2.30;;;13.80;99.90;;;;;;5030204;28;20682;-70
2023/05/12 05:46:08;;;;;;;2.50;1.80;;;13.80;99.90;;;;;;5016838;28;20252;-72
2023/05/12 05:48:35;;;;;;;2.23;1.90;;;13.80;99.90;;;;;;5030129;28;20214;-71
2023/05/12 05:51:01;;;;;;;5.10;1.67;;;13.90;99.90;;;;;;5028954;28;20239;-70
2023/05/12 05:53:27;;;;;;;1.23;1.13;;;13.90;99.90;;;;;;5018263;28;20463;-71
2023/05/12 05:55:53;;;;;;;1.50;1.40;;;13.90;99.90;;;;;;5010652;28;20221;-70
2023/05/12 05:58:19;;;;;;;1.03;0.93;;;13.80;99.90;;;;;;5030838;28;20570;-71
2023/05/12 06:00:45;;;;;;;1.40;1.30;;;13.80;99.90;;;;;;5033301;28;20221;-70
2023/05/12 06:03:11;;;;;;;1.87;1.00;;;13.80;99.90;;;;;;5008774;28;20464;-72
2023/05/12 06:05:37;;;;;;;1.70;1.60;;;13.80;99.90;;;;;;5033646;28;20455;-71
2023/05/12 06:08:04;;;;;;;2.03;1.77;;;13.80;99.90;;;;;;5028410;28;20630;-71
2023/05/12 06:10:30;;;;;;;5.90;1.90;;;13.80;99.90;;;;;;5026728;28;20217;-72
2023/05/12 06:12:56;;;;;;;6.03;2.20;;;13.80;99.90;;;;;;5022844;28;20464;-71
2023/05/12 06:15:22;;;;;;;2.30;2.10;;;13.80;99.90;;;;;;5027212;28;20226;-71
2023/05/12 06:17:48;;;;;;;5.13;2.57;;;13.80;99.90;;;;;;5031694;28;20217;-71
2023/05/12 06:20:14;;;;;;;5.17;3.50;;;13.80;99.90;;;;;;5009934;28;20832;-71
2023/05/12 06:22:41;;;;;;;3.00;2.70;;;13.80;99.90;;;;;;5029561;28;20205;-71
2023/05/12 06:25:07;;;;;;;4.53;3.30;;;13.80;99.90;;;;;;5029950;28;20224;-71
2023/05/12 06:27:32;;;;;;;3.83;3.20;;;13.70;99.90;;;;;;5021377;28;20486;-71
2023/05/12 06:29:58;;;;;;;4.57;3.77;;;13.80;99.90;;;;;;5023543;28;20448;-72
2023/05/12 06:32:25;;;;;;;5.50;3.87;;;13.80;99.90;;;;;;5028171;28;20306;-71
2023/05/12 06:34:51;;;;;;;5.30;4.50;;;13.80;99.90;;;;;;5024185;28;20827;-72
2023/05/12 06:37:16;;;;;;;3.13;2.80;;;13.80;99.90;;;;;;5028739;28;20471;-72
2023/05/12 06:39:42;;;;;;;4.43;4.03;;;13.80;99.90;;;;;;5031265;28;20323;-72
2023/05/12 06:42:07;;;;;;;4.73;4.10;;;13.80;99.90;;;;;;5013781;28;20218;-71
2023/05/12 06:44:39;;;;;;;5.87;5.27;;;13.80;99.90;;;;;;5015430;28;20217;-71
2023/05/12 06:47:05;;;;;;;6.67;4.67;;;13.80;99.90;;;;;;5020543;28;20537;-71
2023/05/12 06:49:34;;;;;;;5.90;5.30;;;13.80;99.90;;;;;;5029693;28;20299;-74
2023/05/12 06:52:00;;;;;;;6.17;4.73;;;13.80;99.90;;;;;;5035385;28;20244;-72
2023/05/12 06:54:26;;;;;;;10.80;5.40;;;13.80;99.90;;;;;;5015383;28;20517;-70
2023/05/12 06:56:51;;;;;;;5.60;4.93;;;13.80;99.90;;;;;;5008143;28;20475;-71
2023/05/12 06:59:17;;;;;;;7.33;4.73;;;13.80;99.90;;;;;;5037661;28;20251;-71
2023/05/12 07:01:43;;;;;;;7.03;4.90;;;13.80;99.90;;;;;;5036792;28;20578;-71
2023/05/12 07:04:08;;;;;;;6.33;5.10;;;13.90;99.90;;;;;;5033247;28;20222;-70
2023/05/12 07:06:34;;;;;;;5.40;4.90;;;13.90;99.90;;;;;;5031964;28;20597;-72
2023/05/12 07:09:00;;;;;;;7.93;6.10;;;13.90;99.90;;;;;;5027367;28;20228;-71
2023/05/12 07:11:25;;;;;;;7.40;5.10;;;13.90;99.90;;;;;;5017119;28;20216;-72
2023/05/12 07:13:51;;;;;;;6.70;5.20;;;13.90;99.90;;;;;;5037434;28;20236;-72
2023/05/12 07:16:18;;;;;;;8.10;5.17;;;13.90;99.90;;;;;;5030064;28;20226;-72
2023/05/12 07:18:45;;;;;;;6.90;5.40;;;13.90;99.90;;;;;;5025089;28;21003;-72
2023/05/12 07:21:11;;;;;;;8.83;5.67;;;13.90;99.90;;;;;;5016158;28;20491;-72
2023/05/12 07:23:37;;;;;;;5.40;4.90;;;13.90;99.90;;;;;;5022003;28;20467;-72
2023/05/12 07:26:05;;;;;;;5.73;5.13;;;13.90;99.90;;;;;;5018226;28;20465;-71
2023/05/12 07:28:34;;;;;;;5.70;5.10;;;13.90;99.90;;;;;;5029887;28;20544;-71
2023/05/12 07:31:04;;;;;;;5.50;4.93;;;13.90;99.90;;;;;;5015178;28;20463;-72
2023/05/12 07:33:30;;;;;;;6.60;5.50;;;13.90;99.90;;;;;;5031075;28;20963;-72
2023/05/12 07:35:56;;;;;;;6.37;5.20;;;13.90;99.90;;;;;;5027278;28;20525;-71
2023/05/12 07:38:22;;;;;;;6.40;5.40;;;13.90;99.90;;;;;;5050261;28;20464;-71
2023/05/12 07:40:48;;;;;;;6.50;5.70;;;13.90;99.90;;;;;;5029133;28;20304;-70
2023/05/12 07:43:16;;;;;;;4.90;4.40;;;13.90;99.90;;;;;;5033189;28;20985;-71
2023/05/12 07:45:42;;;;;;;5.87;5.10;;;13.80;99.90;;;;;;5000827;28;20468;-71
2023/05/12 07:48:10;;;;;;;5.83;4.80;;;13.90;99.90;;;;;;5008647;28;20603;-72
2023/05/12 07:50:36;;;;;;;7.10;5.50;;;13.90;99.90;;;;;;5030866;28;20526;-70
2023/05/12 07:53:02;;;;;;;6.20;5.43;;;13.90;99.90;;;;;;5035226;28;20464;-70
2023/05/12 07:55:27;;;;;;;5.57;4.73;;;13.90;99.90;;;;;;5022869;28;20221;-69
2023/05/12 07:57:53;;;;;;;6.07;4.67;;;13.90;99.90;;;;;;5029056;28;20995;-70
2023/05/12 08:00:19;;;;;;;5.93;5.20;;;13.90;99.90;;;;;;5018284;28;20305;-69
2023/05/12 08:02:45;;;;;;;6.53;5.83;;;13.90;99.90;;;;;;5044293;28;20223;-71
2023/05/12 08:05:11;;;;;;;7.07;5.33;;;13.90;99.90;;;;;;5032881;28;20462;-67
2023/05/12 08:07:38;;;;;;;7.33;5.80;;;14.00;99.90;;;;;;5021783;28;20483;-70
2023/05/12 08:10:05;;;;;;;7.00;5.43;;;13.90;99.90;;;;;;5023614;28;20209;-71
2023/05/12 08:12:31;;;;;;;6.23;5.37;;;14.00;99.90;;;;;;5023296;28;20551;-69
2023/05/12 08:14:57;;;;;;;6.37;5.33;;;14.00;99.90;;;;;;5006256;28;20891;-71
2023/05/12 08:17:22;;;;;;;6.10;5.43;;;14.00;99.90;;;;;;5007702;28;20472;-72
2023/05/12 08:19:48;;;;;;;7.70;6.13;;;14.00;99.90;;;;;;5027879;28;20229;-69
2023/05/12 08:22:14;;;;;;;5.30;4.80;;;14.00;99.90;;;;;;5029186;28;20218;-71
2023/05/12 08:24:39;;;;;;;6.93;5.23;;;14.00;99.90;;;;;;5013284;28;20263;-69
2023/05/12 08:27:05;;;;;;;9.93;5.37;;;14.00;99.90;;;;;;5033614;28;20567;-71
2023/05/12 08:29:30;;;;;;;7.97;5.90;;;14.00;99.90;;;;;;5016919;28;20220;-71
2023/05/12 08:31:57;;;;;;;8.23;5.57;;;14.00;99.90;;;;;;5008336;28;20228;-70
2023/05/12 08:34:26;;;;;;;7.07;6.33;;;14.10;99.90;;;;;;5021725;28;20271;-71
2023/05/12 08:36:52;;;;;;;7.20;5.13;;;14.10;99.90;;;;;;5031099;28;20488;-71
2023/05/12 08:39:18;;;;;;;6.97;5.70;;;14.20;99.90;;;;;;5012111;28;20443;-68
2023/05/12 08:41:51;;;;;;;6.77;5.70;;;14.20;99.90;;;;;;5026474;28;20468;-71
2023/05/12 08:44:18;;;;;;;5.80;4.90;;;14.20;99.90;;;;;;5032066;28;21062;-71
2023/05/12 08:46:44;;;;;;;6.60;5.97;;;14.20;99.90;;;;;;5026490;28;20514;-71
2023/05/12 08:49:15;;;;;;;10.57;6.00;;;14.20;99.90;;;;;;5025195;28;20572;-70
2023/05/12 08:51:43;;;;;;;6.13;5.60;;;14.10;99.90;;;;;;5028031;28;20483;-71
2023/05/12 08:54:11;;;;;;;7.20;5.70;;;14.20;99.90;;;;;;5024715;28;20603;-71
2023/05/12 08:56:41;;;;;;;6.60;5.40;;;14.20;99.90;;;;;;5027887;28;20486;-71
2023/05/12 08:59:08;;;;;;;5.87;5.20;;;14.20;99.90;;;;;;5023042;28;20479;-71
2023/05/12 09:01:35;;;;;;;5.20;4.70;;;14.20;99.90;;;;;;5023931;28;21045;-72
2023/05/12 09:04:01;;;;;;;5.70;5.17;;;14.20;99.90;;;;;;5020615;28;20465;-70
2023/05/12 09:06:27;;;;;;;7.70;5.47;;;14.20;99.90;;;;;;5025447;28;20888;-71
2023/05/12 09:08:53;;;;;;;6.37;4.60;;;14.20;99.90;;;;;;5028782;28;20464;-71
2023/05/12 09:11:20;;;;;;;6.20;5.60;;;14.20;99.90;;;;;;5024437;28;20534;-70
2023/05/12 09:14:08;;;;;;;7.17;5.47;;;14.20;99.90;;;;;;4990443;28;20480;-71
2023/05/12 09:16:41;;;;;;;10.83;7.90;;;14.20;99.90;;;;;;5030938;28;20995;-71
2023/05/12 09:19:07;;;;;;;10.30;6.80;;;14.20;99.90;;;;;;5025186;28;20468;-70
2023/05/12 09:21:33;;;;;;;7.33;5.40;;;14.30;99.90;;;;;;5056172;28;20623;-70
2023/05/12 09:24:06;;;;;;;6.60;5.97;;;14.30;99.90;;;;;;5017796;28;20232;-71
2023/05/12 09:26:47;;;;;;;19.13;6.37;;;14.30;99.90;;;;;;5028579;28;20217;-70
2023/05/12 09:29:13;;;;;;;6.00;5.40;;;14.30;99.90;;;;;;5028865;28;20477;-72
2023/05/12 09:31:47;;;;;;;6.87;6.17;;;14.30;99.90;;;;;;5015778;28;20546;-71
2023/05/12 09:34:13;;;;;;;6.63;5.87;;;14.30;99.90;;;;;;5030709;28;20225;-71
2023/05/12 09:36:39;;;;;;;8.07;6.37;;;14.40;99.90;;;;;;5034612;28;20980;-70
2023/05/12 09:39:07;;;;;;;7.23;6.37;;;14.40;99.90;;;;;;5028534;28;20213;-70
2023/05/12 09:41:40;;;;;;;10.30;6.00;;;14.40;99.90;;;;;;5020854;28;20225;-70
2023/05/12 09:44:07;;;;;;;6.20;5.60;;;14.50;99.90;;;;;;5032947;28;20502;-70
2023/05/12 09:46:33;;;;;;;5.00;4.60;;;14.50;99.90;;;;;;5015986;28;20465;-70
2023/05/12 09:48:59;;;;;;;8.83;6.00;;;14.50;99.90;;;;;;5025022;28;20482;-71
2023/05/12 09:51:26;;;;;;;6.93;5.90;;;14.50;99.90;;;;;;5035013;28;20480;-71
2023/05/12 09:53:52;;;;;;;5.73;5.00;;;14.60;99.90;;;;;;5026189;28;20480;-71
2023/05/12 09:56:18;;;;;;;6.63;5.27;;;14.60;99.90;;;;;;5022014;28;20987;-70
2023/05/12 09:58:46;;;;;;;6.90;6.03;;;14.70;99.90;;;;;;5031158;28;20482;-71
2023/05/12 10:01:17;;;;;;;7.10;5.07;;;14.80;99.90;;;;;;5023088;28;20304;-71
2023/05/12 10:03:47;;;;;;;10.50;5.77;;;14.90;99.90;;;;;;5054939;28;20498;-70
2023/05/12 10:06:29;;;;;;;5.67;5.07;;;14.90;99.90;;;;;;5020415;28;20970;-70
2023/05/12 10:09:04;;;;;;;8.53;5.00;;;15.00;99.90;;;;;;5019688;28;20483;-70
2023/05/12 10:11:30;;;;;;;6.87;5.23;;;15.00;99.90;;;;;;5018855;28;20468;-70
2023/05/12 10:13:57;;;;;;;7.93;4.40;;;15.10;99.90;;;;;;5017307;28;20465;-72
2023/05/12 10:16:25;;;;;;;5.80;4.87;;;15.10;99.90;;;;;;5027861;28;20524;-70
2023/05/12 10:18:51;;;;;;;5.67;5.17;;;15.10;99.90;;;;;;5020080;28;20459;-71
2023/05/12 10:21:18;;;;;;;6.27;5.30;;;15.10;99.90;;;;;;5016821;28;20751;-72
2023/05/12 10:23:45;;;;;;;4.87;4.37;;;15.10;99.90;;;;;;5030036;28;20274;-71
2023/05/12 10:26:12;;;;;;;5.57;5.07;;;15.20;99.90;;;;;;5029927;28;20973;-71
2023/05/12 10:28:38;;;;;;;5.30;4.87;;;15.20;99.90;;;;;;5030955;28;20591;-73
2023/05/12 10:31:06;;;;;;;5.70;5.10;;;15.30;99.90;;;;;;5025919;28;20556;-70
2023/05/12 10:33:32;;;;;;;5.60;5.10;;;15.30;99.90;;;;;;5024102;28;20308;-69
2023/05/12 10:35:58;;;;;;;7.60;4.80;;;15.30;99.90;;;;;;5024673;28;20550;-71
2023/05/12 10:38:24;;;;;;;6.83;4.63;;;15.30;99.90;;;;;;5032585;28;20465;-71
2023/05/12 10:41:04;;;;;;;4.40;4.00;;;15.30;99.90;;;;;;5012187;28;20226;-72
2023/05/12 10:43:42;;;;;;;7.00;5.20;;;15.40;99.90;;;;;;5022636;28;20472;-71
2023/05/12 10:46:11;;;;;;;5.10;4.60;;;15.40;99.90;;;;;;5052841;28;20473;-71
2023/05/12 10:48:59;;;;;;;9.97;5.30;;;15.40;99.90;;;;;;5029715;28;20530;-70
2023/05/12 10:51:28;;;;;;;5.53;5.03;;;15.50;99.90;;;;;;5032934;28;20972;-71
2023/05/12 10:53:59;;;;;;;5.13;4.63;;;15.50;99.90;;;;;;5030762;28;20518;-73
2023/05/12 10:56:38;;;;;;;4.83;4.33;;;15.50;99.90;;;;;;5013364;28;20464;-72
2023/05/12 10:59:10;;;;;;;5.53;4.80;;;15.60;99.90;;;;;;5027377;28;21021;-71
2023/05/12 11:01:36;;;;;;;5.13;4.50;;;15.60;99.90;;;;;;5029596;28;21012;-71
2023/05/12 11:04:15;;;;;;;5.67;4.67;;;15.60;99.90;;;;;;5020102;28;20492;-72
2023/05/12 11:06:42;;;;;;;6.20;4.90;;;15.50;99.90;;;;;;5025979;28;20220;-71
2023/05/12 11:09:10;;;;;;;4.67;4.27;;;15.50;99.90;;;;;;5020385;28;20884;-70
2023/05/12 11:11:36;;;;;;;4.97;4.57;;;15.50;99.90;;;;;;5031601;28;20471;-72
2023/05/12 11:14:01;;;;;;;4.50;4.10;;;15.50;99.90;;;;;;5031693;28;20520;-72
2023/05/12 11:16:27;;;;;;;4.73;4.20;;;15.50;99.90;;;;;;5025076;28;20476;-69
2023/05/12 11:19:05;;;;;;;3.90;3.60;;;15.50;99.90;;;;;;5021432;28;20229;-70
2023/05/12 11:21:31;;;;;;;5.80;4.53;;;15.50;99.90;;;;;;5032155;28;20690;-73
2023/05/12 11:23:58;;;;;;;4.90;4.37;;;15.60;99.90;;;;;;5026526;28;20475;-72
2023/05/12 11:26:25;;;;;;;4.00;3.70;;;15.70;99.90;;;;;;5029154;28;20525;-71
2023/05/12 11:28:51;;;;;;;5.57;4.53;;;15.70;99.90;;;;;;5015733;28;20452;-71
2023/05/12 11:31:21;;;;;;;4.37;3.97;;;15.70;99.90;;;;;;5005011;28;21045;-70
2023/05/12 11:33:47;;;;;;;6.23;3.80;;;15.70;99.90;;;;;;5034337;28;20479;-71
2023/05/12 11:36:13;;;;;;;4.43;3.80;;;15.70;99.90;;;;;;5033662;28;20996;-71
2023/05/12 11:38:39;;;;;;;4.80;4.33;;;15.70;99.90;;;;;;5005065;28;20590;-70
2023/05/12 11:41:04;;;;;;;4.30;3.90;;;15.70;99.90;;;;;;5029625;28;20543;-71
2023/05/12 11:43:30;;;;;;;4.47;4.07;;;15.80;99.90;;;;;;5007299;28;20221;-72
2023/05/12 11:45:56;;;;;;;5.33;3.83;;;15.80;99.90;;;;;;5025585;28;20229;-71
2023/05/12 11:48:32;;;;;;;3.80;3.37;;;15.80;99.90;;;;;;5021339;28;20272;-70
2023/05/12 11:50:58;;;;;;;3.90;3.50;;;15.80;99.90;;;;;;5037084;28;20232;-70
2023/05/12 11:53:24;;;;;;;4.30;3.90;;;15.90;99.90;;;;;;5035223;28;20468;-69
2023/05/12 11:55:51;;;;;;;6.33;3.70;;;15.90;99.90;;;;;;5028893;28;20859;-71
2023/05/12 11:58:29;;;;;;;4.03;3.73;;;15.90;99.90;;;;;;5021470;28;20228;-71
2023/05/12 12:00:56;;;;;;;4.53;4.13;;;15.90;99.90;;;;;;5020929;28;20489;-71
2023/05/12 12:03:23;;;;;;;4.67;4.27;;;16.00;99.90;;;;;;5019253;28;20558;-69
2023/05/12 12:06:00;;;;;;;4.50;4.10;;;16.00;99.90;;;;;;5022318;28;20552;-70
2023/05/12 12:08:25;;;;;;;6.17;4.60;;;16.10;99.90;;;;;;5022036;28;20570;-71
2023/05/12 12:10:51;;;;;;;4.50;4.10;;;16.10;99.90;;;;;;5027732;28;20581;-73
2023/05/12 12:13:24;;;;;;;4.03;3.73;;;16.10;99.90;;;;;;5030415;28;20225;-71
2023/05/12 12:15:51;;;;;;;4.77;4.00;;;16.10;99.90;;;;;;5023644;28;20312;-71
2023/05/12 12:18:17;;;;;;;4.83;4.37;;;16.20;99.90;;;;;;5029887;28;20455;-70
2023/05/12 12:20:44;;;;;;;4.20;3.77;;;16.10;99.90;;;;;;5027927;28;20952;-72
2023/05/12 12:23:10;;;;;;;4.03;3.50;;;16.20;99.90;;;;;;5015370;28;20485;-72
2023/05/12 12:25:36;;;;;;;3.17;2.90;;;16.10;99.90;;;;;;5026894;28;20838;-71
2023/05/12 12:28:02;;;;;;;4.43;3.80;;;16.20;99.90;;;;;;5031109;28;20460;-70
2023/05/12 12:30:27;;;;;;;3.53;3.10;;;16.20;99.90;;;;;;5033436;28;20225;-71
2023/05/12 12:32:53;;;;;;;3.40;3.10;;;16.20;99.90;;;;;;5003483;28;20313;-71
2023/05/12 12:35:18;;;;;;;3.90;3.60;;;16.30;99.90;;;;;;5042550;28;20227;-70
2023/05/12 12:37:50;;;;;;;3.80;3.17;;;16.20;99.90;;;;;;5026494;28;20293;-71
2023/05/12 12:40:19;;;;;;;3.57;3.27;;;16.20;99.90;;;;;;5028534;28;20224;-71
2023/05/12 12:42:45;;;;;;;3.60;3.30;;;16.20;99.90;;;;;;5037407;28;20494;-70
2023/05/12 12:45:12;;;;;;;3.40;3.20;;;16.20;99.90;;;;;;5015318;28;20448;-70